createdAt,value
2023-05-23T00:01:49.039Z,69.33
2023-05-23T00:03:45.997Z,69.33
2023-05-23T00:05:46.111Z,69.33
2023-05-23T00:07:45.828Z,0.2
2023-05-23T00:09:45.673Z,0.2
2023-05-23T00:11:45.784Z,0.2
2023-05-23T00:13:44.889Z,69.33
2023-05-23T00:15:45.771Z,69.33
2023-05-23T00:17:45.797Z,69.33
2023-05-23T00:19:46.675Z,65.34
2023-05-23T00:21:45.444Z,65.34
2023-05-23T00:23:44.816Z,65.34
2023-05-23T00:25:45.274Z,0.17
2023-05-23T00:27:44.937Z,0.17
2023-05-23T00:29:46.289Z,0.17
2023-05-23T00:31:45.727Z,0.17
2023-05-23T00:33:45.916Z,0.17
2023-05-23T00:35:45.127Z,0.17
2023-05-23T00:37:45.756Z,63.39
2023-05-23T00:39:45.295Z,63.39
2023-05-23T00:41:45.002Z,63.39
2023-05-23T00:43:45.493Z,0.18
2023-05-23T00:45:45.194Z,0.18
2023-05-23T00:47:46.131Z,0.18
2023-05-23T00:49:45.429Z,0.17
2023-05-23T00:51:44.933Z,0.17
2023-05-23T00:53:45.696Z,0.17
2023-05-23T00:55:45.421Z,0.17
2023-05-23T00:57:45.742Z,0.17
2023-05-23T00:59:45.139Z,0.17
2023-05-23T01:01:49.846Z,57.77
2023-05-23T01:03:47.012Z,57.77
2023-05-23T01:05:44.970Z,57.77
2023-05-23T01:07:45.371Z,57.77
2023-05-23T01:09:44.974Z,57.77
2023-05-23T01:11:45.789Z,57.77
2023-05-23T01:13:44.938Z,0.15
2023-05-23T01:15:45.695Z,0.15
2023-05-23T01:17:47.234Z,0.15
2023-05-23T01:19:46.125Z,0.14
2023-05-23T01:21:45.840Z,0.14
2023-05-23T01:23:44.949Z,0.14
2023-05-23T01:25:45.647Z,0.14
2023-05-23T01:27:44.860Z,0.14
2023-05-23T01:29:45.459Z,0.14
2023-05-23T01:31:45.406Z,0.12
2023-05-23T01:33:46.596Z,0.12
2023-05-23T01:35:45.133Z,0.12
2023-05-23T01:37:44.588Z,0.13
2023-05-23T01:39:45.333Z,0.13
2023-05-23T01:41:45.121Z,0.13
2023-05-23T01:43:45.675Z,0.12
2023-05-23T01:45:44.982Z,0.12
2023-05-23T01:47:46.119Z,0.12
2023-05-23T01:49:45.490Z,0.13
2023-05-23T01:51:45.089Z,0.13
2023-05-23T01:53:45.312Z,0.13
2023-05-23T01:55:45.456Z,45.85
2023-05-23T01:57:45.491Z,45.85
2023-05-23T01:59:45.176Z,45.85
2023-05-23T02:01:49.218Z,0.12
2023-05-23T02:03:46.487Z,0.12
2023-05-23T02:05:44.937Z,0.12
2023-05-23T02:07:45.453Z,45.85
2023-05-23T02:09:45.231Z,45.85
2023-05-23T02:11:45.857Z,45.85
2023-05-23T02:13:45.185Z,44.27
2023-05-23T02:15:45.443Z,44.27
2023-05-23T02:17:45.435Z,44.27
2023-05-23T02:19:46.043Z,0.12
2023-05-23T02:21:47.255Z,0.12
2023-05-23T02:23:45.475Z,0.12
2023-05-23T02:25:44.878Z,0.12
2023-05-23T02:27:45.256Z,0.12
2023-05-23T02:29:45.720Z,0.12
2023-05-23T02:31:45.853Z,36.9
2023-05-23T02:33:46.057Z,36.9
2023-05-23T02:35:45.104Z,36.9
2023-05-23T02:37:44.751Z,0.1
2023-05-23T02:39:45.715Z,0.1
2023-05-23T02:41:45.091Z,0.1
2023-05-23T02:43:46.776Z,0.1
2023-05-23T02:45:44.778Z,0.1
2023-05-23T02:47:46.114Z,0.1
2023-05-23T02:49:45.684Z,0.1
2023-05-23T02:51:45.529Z,0.1
2023-05-23T02:53:45.023Z,0.1
2023-05-23T02:55:45.448Z,0.11
2023-05-23T02:57:44.795Z,0.11
2023-05-23T02:59:45.341Z,0.11
2023-05-23T03:01:52.534Z,39.75
2023-05-23T03:03:46.856Z,39.75
2023-05-23T03:05:45.387Z,39.75
2023-05-23T03:08:02.473Z,0.11
2023-05-23T03:09:45.284Z,0.11
2023-05-23T03:11:45.889Z,0.11
2023-05-23T03:13:45.488Z,36.9
2023-05-23T03:15:45.745Z,36.9
2023-05-23T03:17:46.091Z,36.9
2023-05-23T03:19:48.288Z,36.9
2023-05-23T03:21:45.820Z,36.9
2023-05-23T03:23:45.402Z,36.9
2023-05-23T03:25:45.642Z,32.85
2023-05-23T03:27:45.203Z,32.85
2023-05-23T03:29:45.936Z,32.85
2023-05-23T03:31:45.792Z,0.09
2023-05-23T03:33:45.475Z,0.09
2023-05-23T03:35:45.885Z,0.09
2023-05-23T03:37:45.246Z,34.17
2023-05-23T03:39:45.872Z,34.17
2023-05-23T03:41:46.220Z,34.17
2023-05-23T03:43:45.415Z,34.17
2023-05-23T03:45:46.025Z,34.17
2023-05-23T03:47:45.860Z,34.17
2023-05-23T03:49:45.254Z,0.09
2023-05-23T03:51:45.860Z,0.09
2023-05-23T03:53:48.177Z,0.09
2023-05-23T03:55:45.068Z,0.09
2023-05-23T03:57:45.441Z,0.09
2023-05-23T03:59:46.011Z,0.09
2023-05-23T04:01:48.656Z,0.09
2023-05-23T04:03:46.871Z,0.09
2023-05-23T04:05:45.782Z,0.09
2023-05-23T04:07:46.581Z,30.3
2023-05-23T04:09:45.483Z,30.3
2023-05-23T04:11:46.156Z,30.3
2023-05-23T04:13:45.687Z,0.08
2023-05-23T04:15:45.112Z,0.08
2023-05-23T04:17:46.250Z,0.08
2023-05-23T04:19:45.679Z,0.09
2023-05-23T04:21:46.092Z,0.09
2023-05-23T04:23:45.534Z,0.09
2023-05-23T04:25:44.911Z,31.56
2023-05-23T04:27:45.341Z,31.56
2023-05-23T04:29:45.163Z,31.56
2023-05-23T04:31:46.393Z,34.17
2023-05-23T04:33:45.915Z,34.17
2023-05-23T04:35:48.739Z,34.17
2023-05-23T04:37:45.296Z,32.85
2023-05-23T04:39:44.941Z,32.85
2023-05-23T04:41:47.318Z,32.85
2023-05-23T04:43:46.940Z,31.56
2023-05-23T04:45:45.626Z,31.56
2023-05-23T04:47:48.798Z,31.56
2023-05-23T04:49:45.973Z,0.09
2023-05-23T04:51:45.739Z,0.09
2023-05-23T04:53:45.040Z,0.09
2023-05-23T04:55:46.003Z,32.85
2023-05-23T04:57:45.368Z,32.85
2023-05-23T04:59:45.811Z,32.85
2023-05-23T05:01:49.760Z,0.08
2023-05-23T05:03:45.482Z,0.08
2023-05-23T05:05:46.195Z,0.08
2023-05-23T05:07:45.349Z,30.3
2023-05-23T05:09:45.642Z,30.3
2023-05-23T05:11:45.437Z,30.3
2023-05-23T05:13:45.785Z,30.3
2023-05-23T05:15:45.459Z,30.3
2023-05-23T05:17:48.287Z,30.3
2023-05-23T05:19:45.881Z,0.08
2023-05-23T05:21:45.095Z,0.08
2023-05-23T05:23:45.579Z,0.08
2023-05-23T05:25:45.553Z,0.08
2023-05-23T05:27:46.151Z,0.08
2023-05-23T05:29:45.573Z,0.08
2023-05-23T05:31:45.578Z,0.09
2023-05-23T05:33:45.714Z,0.09
2023-05-23T05:35:47.109Z,0.09
2023-05-23T05:37:45.806Z,0.09
2023-05-23T05:39:44.839Z,0.09
2023-05-23T05:41:45.762Z,0.09
2023-05-23T05:43:45.177Z,0.09
2023-05-23T05:45:45.767Z,0.09
2023-05-23T05:47:46.038Z,0.09
2023-05-23T05:49:47.052Z,34.17
2023-05-23T05:51:45.449Z,34.17
2023-05-23T05:53:44.900Z,34.17
2023-05-23T05:55:45.531Z,32.85
2023-05-23T05:57:44.874Z,32.85
2023-05-23T05:59:45.348Z,32.85
2023-05-23T06:01:49.046Z,32.85
2023-05-23T06:03:47.282Z,32.85
2023-05-23T06:05:45.777Z,32.85
2023-05-23T06:07:45.043Z,0.09
2023-05-23T06:09:45.280Z,0.09
2023-05-23T06:11:46.692Z,0.09
2023-05-23T06:13:45.622Z,0.09
2023-05-23T06:15:47.837Z,0.09
2023-05-23T06:17:46.198Z,0.09
2023-05-23T06:19:45.916Z,0.09
2023-05-23T06:21:46.321Z,0.09
2023-05-23T06:23:45.385Z,0.09
2023-05-23T06:25:45.102Z,32.85
2023-05-23T06:27:45.489Z,32.85
2023-05-23T06:29:44.965Z,32.85
2023-05-23T06:31:46.981Z,0.09
2023-05-23T06:33:46.076Z,0.09
2023-05-23T06:35:45.808Z,0.09
2023-05-23T06:37:45.321Z,0.09
2023-05-23T06:39:44.736Z,0.09
2023-05-23T06:41:45.768Z,0.09
2023-05-23T06:43:45.486Z,0.08
2023-05-23T06:45:45.008Z,0.08
2023-05-23T06:47:49.479Z,0.08
2023-05-23T06:50:00.891Z,0.08
2023-05-23T06:51:46.334Z,0.08
2023-05-23T06:53:45.280Z,0.08
2023-05-23T06:55:45.561Z,0.09
2023-05-23T06:57:45.302Z,0.09
2023-05-23T06:59:45.146Z,0.09
2023-05-23T07:01:49.890Z,31.56
2023-05-23T07:03:45.734Z,31.56
2023-05-23T07:05:45.379Z,31.56
2023-05-23T07:07:45.603Z,29.07
2023-05-23T07:09:45.144Z,29.07
2023-05-23T07:11:45.960Z,29.07
2023-05-23T07:13:45.168Z,0.09
2023-05-23T07:15:45.708Z,0.09
2023-05-23T07:17:46.100Z,0.09
2023-05-23T07:19:48.346Z,0.09
2023-05-23T07:21:45.646Z,0.09
2023-05-23T07:23:45.015Z,0.09
2023-05-23T07:26:00.614Z,0.09
2023-05-23T07:27:46.741Z,0.09
2023-05-23T07:29:45.600Z,0.09
2023-05-23T07:31:46.115Z,0.09
2023-05-23T07:33:45.513Z,0.09
2023-05-23T07:35:45.780Z,0.09
2023-05-23T07:37:47.079Z,0.1
2023-05-23T07:39:45.760Z,0.1
2023-05-23T07:42:00.453Z,35.52
2023-05-23T07:43:45.482Z,35.52
2023-05-23T07:45:45.822Z,35.52
2023-05-23T07:47:45.439Z,35.52
2023-05-23T07:49:45.722Z,0.1
2023-05-23T07:51:45.363Z,0.1
2023-05-23T07:53:45.637Z,0.1
2023-05-23T07:55:48.498Z,32.85
2023-05-23T07:57:45.767Z,32.85
2023-05-23T07:59:45.452Z,32.85
2023-05-23T08:01:50.964Z,0.1
2023-05-23T08:03:46.549Z,0.1
2023-05-23T08:05:45.751Z,0.1
2023-05-23T08:08:05.284Z,0.1
2023-05-23T08:09:45.601Z,0.1
2023-05-23T08:11:45.506Z,0.1
2023-05-23T08:13:45.315Z,38.31
2023-05-23T08:16:01.978Z,38.31
2023-05-23T08:17:46.910Z,38.31
2023-05-23T08:19:46.894Z,41.23
2023-05-23T08:21:45.466Z,41.23
2023-05-23T08:23:44.954Z,41.23
2023-05-23T08:25:47.045Z,0.12
2023-05-23T08:27:44.938Z,0.12
2023-05-23T08:29:45.640Z,0.12
2023-05-23T08:31:49.041Z,44.27
2023-05-23T08:33:46.450Z,44.27
2023-05-23T08:35:47.082Z,44.27
2023-05-23T08:37:46.072Z,0.12
2023-05-23T08:39:48.358Z,0.12
2023-05-23T08:41:45.327Z,0.12
2023-05-23T08:43:46.030Z,0.12
2023-05-23T08:45:48.466Z,0.12
2023-05-23T08:47:46.008Z,0.12
2023-05-23T08:49:45.708Z,0.12
2023-05-23T08:51:45.470Z,0.12
2023-05-23T08:53:45.833Z,0.12
2023-05-23T08:55:45.350Z,0.11
2023-05-23T08:57:44.856Z,0.11
2023-05-23T08:59:45.562Z,0.11
2023-05-23T09:01:50.778Z,0.11
2023-05-23T09:03:45.745Z,0.11
2023-05-23T09:05:45.750Z,0.11
2023-05-23T09:07:45.420Z,38.31
2023-05-23T09:09:45.820Z,38.31
2023-05-23T09:11:51.151Z,38.31
2023-05-23T09:13:45.155Z,0.11
2023-05-23T09:15:45.516Z,0.11
2023-05-23T09:17:47.894Z,0.11
2023-05-23T09:19:46.434Z,38.31
2023-05-23T09:21:45.193Z,38.31
2023-05-23T09:23:48.950Z,38.31
2023-05-23T09:25:45.177Z,38.31
2023-05-23T09:27:47.818Z,38.31
2023-05-23T09:29:49.554Z,38.31
2023-05-23T09:31:45.762Z,36.9
2023-05-23T09:33:49.132Z,36.9
2023-05-23T09:35:45.728Z,36.9
2023-05-23T09:37:45.153Z,36.9
2023-05-23T09:39:48.682Z,36.9
2023-05-23T09:41:45.716Z,36.9
2023-05-23T09:43:45.016Z,32.85
2023-05-23T09:45:49.202Z,32.85
2023-05-23T09:47:45.750Z,32.85
2023-05-23T09:49:46.406Z,38.31
2023-05-23T09:51:47.697Z,38.31
2023-05-23T09:53:44.964Z,38.31
2023-05-23T09:55:45.657Z,0.11
2023-05-23T09:57:45.152Z,0.11
2023-05-23T09:59:45.685Z,0.11
2023-05-23T10:01:50.404Z,0.11
2023-05-23T10:03:45.617Z,0.11
2023-05-23T10:05:45.874Z,0.11
2023-05-23T10:07:45.401Z,38.31
2023-05-23T10:09:45.017Z,38.31
2023-05-23T10:11:45.567Z,38.31
2023-05-23T10:13:45.202Z,41.23
2023-05-23T10:15:44.914Z,41.23
2023-05-23T10:17:46.254Z,41.23
2023-05-23T10:19:45.890Z,0.12
2023-05-23T10:21:46.685Z,0.12
2023-05-23T10:23:45.528Z,0.12
2023-05-23T10:25:45.217Z,0.12
2023-05-23T10:27:45.773Z,0.12
2023-05-23T10:29:48.189Z,0.12
2023-05-23T10:31:45.393Z,42.74
2023-05-23T10:33:45.839Z,42.74
2023-05-23T10:35:45.512Z,42.74
2023-05-23T10:37:45.027Z,0.1
2023-05-23T10:39:48.779Z,0.1
2023-05-23T10:41:45.894Z,0.1
2023-05-23T10:43:45.565Z,27.87
2023-05-23T10:45:46.292Z,27.87
2023-05-23T10:47:46.758Z,27.87
2023-05-23T10:49:45.220Z,0.06
2023-05-23T10:51:45.895Z,0.06
2023-05-23T10:53:45.370Z,0.06
2023-05-23T10:55:45.789Z,0.05
2023-05-23T10:57:46.390Z,0.05
2023-05-23T10:59:45.806Z,0.05
2023-05-23T11:01:49.521Z,0.05
2023-05-23T11:03:46.634Z,0.05
2023-05-23T11:05:45.974Z,0.05
2023-05-23T11:07:45.552Z,0.05
2023-05-23T11:09:57.943Z,0.05
2023-05-23T11:11:46.010Z,0.05
2023-05-23T11:13:45.472Z,0.07
2023-05-23T11:15:46.120Z,0.07
2023-05-23T11:17:46.506Z,0.07
2023-05-23T11:19:45.835Z,0.07
2023-05-23T11:21:45.915Z,0.07
2023-05-23T11:23:45.072Z,0.07
2023-05-23T11:25:45.533Z,0.08
2023-05-23T11:27:45.121Z,0.08
2023-05-23T11:29:45.660Z,0.08
2023-05-23T11:31:46.524Z,32.85
2023-05-23T11:33:50.133Z,32.85
2023-05-23T11:35:45.190Z,32.85
2023-05-23T11:37:45.031Z,31.56
2023-05-23T11:39:45.488Z,31.56
2023-05-23T11:41:45.541Z,31.56
2023-05-23T11:43:44.983Z,0.16
2023-05-23T11:45:45.817Z,0.16
2023-05-23T11:47:45.708Z,0.16
2023-05-23T11:49:45.873Z,65.34
2023-05-23T11:51:45.473Z,65.34
2023-05-23T11:53:45.183Z,65.34
2023-05-23T11:55:49.950Z,0.15
2023-05-23T11:57:45.009Z,0.15
2023-05-23T11:59:45.752Z,0.15
2023-05-23T12:01:52.917Z,32.85
2023-05-23T12:03:47.144Z,32.85
2023-05-23T12:05:46.305Z,32.85
2023-05-23T12:07:46.670Z,0.09
2023-05-23T12:09:45.832Z,0.09
2023-05-23T12:11:45.618Z,0.09
2023-05-23T12:13:45.046Z,0.12
2023-05-23T12:15:47.164Z,0.12
2023-05-23T12:17:46.724Z,0.12
2023-05-23T12:19:46.392Z,0.15
2023-05-23T12:21:46.559Z,0.15
2023-05-23T12:23:46.703Z,0.15
2023-05-23T12:25:45.563Z,0.17
2023-05-23T12:27:45.404Z,0.17
2023-05-23T12:29:47.001Z,0.17
2023-05-23T12:31:46.256Z,0.13
2023-05-23T12:33:45.565Z,0.13
2023-05-23T12:35:45.145Z,0.13
2023-05-23T12:38:06.133Z,34.17
2023-05-23T12:39:45.459Z,34.17
2023-05-23T12:41:46.126Z,34.17
2023-05-23T12:43:45.452Z,0.09
2023-05-23T12:45:45.212Z,0.09
2023-05-23T12:47:47.011Z,0.09
2023-05-23T12:49:46.147Z,0.09
2023-05-23T12:51:45.867Z,0.09
2023-05-23T12:53:48.512Z,0.09
2023-05-23T12:55:45.085Z,29.07
2023-05-23T12:57:45.516Z,29.07
2023-05-23T12:59:45.110Z,29.07
2023-05-23T13:01:49.966Z,26.7
2023-05-23T13:03:45.864Z,26.7
2023-05-23T13:05:45.153Z,26.7
2023-05-23T13:07:45.727Z,0.08
2023-05-23T13:09:45.037Z,0.08
2023-05-23T13:11:45.994Z,0.08
2023-05-23T13:13:45.403Z,0.09
2023-05-23T13:15:48.025Z,0.09
2023-05-23T13:17:49.904Z,0.09
2023-05-23T13:19:46.210Z,0.08
2023-05-23T13:21:47.321Z,0.08
2023-05-23T13:23:44.718Z,0.08
2023-05-23T13:25:45.555Z,34.17
2023-05-23T13:27:45.586Z,34.17
2023-05-23T13:29:45.695Z,34.17
2023-05-23T13:31:46.379Z,0.07
2023-05-23T13:33:49.208Z,0.07
2023-05-23T13:35:45.265Z,0.07
2023-05-23T13:37:44.975Z,0.07
2023-05-23T13:39:47.419Z,0.07
2023-05-23T13:41:47.800Z,0.07
2023-05-23T13:43:45.794Z,29.07
2023-05-23T13:45:45.574Z,29.07
2023-05-23T13:47:47.895Z,29.07
2023-05-23T13:49:45.651Z,0.07
2023-05-23T13:51:46.195Z,0.07
2023-05-23T13:53:47.196Z,0.07
2023-05-23T13:55:45.503Z,0.07
2023-05-23T13:57:45.457Z,0.07
2023-05-23T13:59:44.963Z,0.07
2023-05-23T14:01:49.324Z,0.06
2023-05-23T14:03:45.752Z,0.06
2023-05-23T14:05:45.330Z,0.06
2023-05-23T14:07:45.311Z,0.07
2023-05-23T14:09:46.540Z,0.07
2023-05-23T14:11:45.843Z,0.07
2023-05-23T14:13:45.005Z,26.7
2023-05-23T14:15:46.407Z,26.7
2023-05-23T14:17:45.909Z,26.7
2023-05-23T14:19:46.709Z,0.07
2023-05-23T14:21:45.716Z,0.07
2023-05-23T14:23:45.202Z,0.07
2023-05-23T14:25:45.649Z,0.07
2023-05-23T14:27:46.128Z,0.07
2023-05-23T14:29:45.293Z,0.07
2023-05-23T14:31:46.119Z,24.44
2023-05-23T14:33:46.183Z,24.44
2023-05-23T14:35:45.767Z,24.44
2023-05-23T14:37:45.253Z,0.07
2023-05-23T14:39:45.371Z,0.07
2023-05-23T14:41:45.892Z,0.07
2023-05-23T14:43:45.329Z,0.06
2023-05-23T14:45:45.433Z,0.06
2023-05-23T14:47:46.094Z,0.06
2023-05-23T14:49:45.490Z,0.06
2023-05-23T14:52:13.132Z,0.06
2023-05-23T14:53:44.977Z,0.06
2023-05-23T14:55:45.489Z,22.3
2023-05-23T14:57:47.417Z,22.3
2023-05-23T14:59:45.281Z,22.3
2023-05-23T15:01:52.383Z,20.27
2023-05-23T15:03:45.901Z,20.27
2023-05-23T15:05:48.433Z,20.27
2023-05-23T15:07:45.671Z,0.05
2023-05-23T15:09:45.337Z,0.05
2023-05-23T15:11:45.784Z,0.05
2023-05-23T15:13:45.591Z,0.06
2023-05-23T15:15:45.223Z,0.06
2023-05-23T15:17:48.869Z,0.06
2023-05-23T15:21:51.127Z,21.27
2023-05-23T15:26:11.462Z,21.27
2023-05-23T15:27:55.857Z,21.27
2023-05-23T15:29:46.813Z,21.27
2023-05-23T15:31:45.892Z,0.06
2023-05-23T15:33:48.104Z,0.06
2023-05-23T15:35:45.152Z,0.06
2023-05-23T15:37:45.520Z,0.07
2023-05-23T15:39:47.011Z,0.07
2023-05-23T15:41:45.045Z,0.07
2023-05-23T15:43:45.220Z,25.55
2023-05-23T15:45:47.647Z,25.55
2023-05-23T15:47:46.415Z,25.55
2023-05-23T15:50:01.934Z,24.44
2023-05-23T15:51:45.679Z,24.44
2023-05-23T15:55:45.284Z,22.3
2023-05-23T15:57:45.580Z,22.3
2023-05-23T15:59:44.722Z,22.3
2023-05-23T16:01:48.968Z,0.06
2023-05-23T16:03:45.651Z,0.06
2023-05-23T16:05:45.733Z,0.06
2023-05-23T16:07:45.178Z,24.44
2023-05-23T16:09:44.806Z,24.44
2023-05-23T16:11:45.531Z,24.44
2023-05-23T16:13:45.232Z,0.08
2023-05-23T16:15:45.402Z,0.08
2023-05-23T16:17:45.597Z,0.08
2023-05-23T16:19:46.727Z,30.3
2023-05-23T16:21:45.227Z,30.3
2023-05-23T16:23:44.954Z,30.3
2023-05-23T16:25:45.235Z,0.07
2023-05-23T16:27:44.720Z,0.07
2023-05-23T16:29:45.660Z,0.07
2023-05-23T16:31:47.442Z,30.3
2023-05-23T16:33:46.176Z,30.3
2023-05-23T16:35:52.233Z,30.3
2023-05-23T16:37:45.605Z,0.08
2023-05-23T16:39:45.166Z,0.08
2023-05-23T16:41:46.016Z,0.08
2023-05-23T16:43:45.478Z,0.08
2023-05-23T16:45:46.055Z,0.08
2023-05-23T16:47:45.915Z,0.08
2023-05-23T16:49:45.547Z,25.55
2023-05-23T16:51:48.503Z,25.55
2023-05-23T16:53:45.462Z,25.55
2023-05-23T16:55:45.262Z,27.87
2023-05-23T16:57:45.610Z,27.87
2023-05-23T16:59:45.465Z,27.87
2023-05-23T17:01:50.459Z,0.07
2023-05-23T17:03:46.672Z,0.07
2023-05-23T17:05:45.945Z,0.07
2023-05-23T17:07:45.484Z,21.27
2023-05-23T17:09:45.215Z,21.27
2023-05-23T17:11:45.964Z,21.27
2023-05-23T17:13:45.730Z,21.27
2023-05-23T17:15:45.555Z,21.27
2023-05-23T17:17:46.132Z,21.27
2023-05-23T17:19:45.957Z,22.3
2023-05-23T17:21:45.813Z,22.3
2023-05-23T17:23:45.215Z,22.3
2023-05-23T17:25:44.771Z,0.06
2023-05-23T17:27:45.538Z,0.06
2023-05-23T17:29:45.016Z,0.06
2023-05-23T17:31:45.867Z,25.55
2023-05-23T17:33:45.736Z,25.55
2023-05-23T17:35:45.588Z,25.55
2023-05-23T17:37:47.780Z,0.07
2023-05-23T17:39:45.696Z,0.07
2023-05-23T17:41:45.713Z,0.07
2023-05-23T17:43:44.877Z,0.07
2023-05-23T17:45:45.397Z,0.07
2023-05-23T17:47:45.372Z,0.07
2023-05-23T17:51:45.101Z,24.44
2023-05-23T17:53:47.399Z,24.44
2023-05-23T17:55:45.489Z,23.36
2023-05-23T17:57:45.060Z,23.36
2023-05-23T17:59:45.567Z,23.36
2023-05-23T18:01:48.197Z,0.06
2023-05-23T18:03:45.290Z,0.06
2023-05-23T18:05:46.210Z,0.06
2023-05-23T18:07:44.936Z,0.06
2023-05-23T18:09:45.470Z,0.06
2023-05-23T18:11:45.149Z,0.06
2023-05-23T18:13:45.757Z,23.36
2023-05-23T18:15:45.204Z,23.36
2023-05-23T18:23:45.240Z,0.07
2023-05-23T18:25:45.790Z,0.06
2023-05-23T18:27:45.530Z,0.06
2023-05-23T18:29:45.164Z,0.06
2023-05-23T18:31:45.504Z,24.44
2023-05-23T18:33:46.190Z,24.44
2023-05-23T18:35:50.129Z,24.44
2023-05-23T18:37:46.763Z,0.08
2023-05-23T18:39:46.534Z,0.08
2023-05-23T18:41:49.243Z,0.08
2023-05-23T18:43:45.162Z,35.52
2023-05-23T18:45:45.839Z,35.52
2023-05-23T18:47:45.786Z,35.52
2023-05-23T18:49:46.019Z,0.11
2023-05-23T18:51:45.525Z,0.11
2023-05-23T18:53:44.841Z,0.11
2023-05-23T18:55:45.264Z,0.12
2023-05-23T18:57:44.971Z,0.12
2023-05-23T18:59:45.193Z,0.12
2023-05-23T19:01:48.841Z,57.77
2023-05-23T19:03:46.593Z,57.77
2023-05-23T19:05:45.525Z,57.77
2023-05-23T19:07:44.912Z,0.16
2023-05-23T19:09:45.278Z,0.16
2023-05-23T19:11:45.400Z,0.16
2023-05-23T19:13:45.857Z,0.17
2023-05-23T19:15:45.401Z,0.17
2023-05-23T19:17:46.095Z,0.17
2023-05-23T19:19:46.394Z,63.39
2023-05-23T19:21:45.179Z,63.39
2023-05-23T19:24:00.451Z,63.39
2023-05-23T19:25:45.030Z,0.15
2023-05-23T19:27:45.604Z,0.15
2023-05-23T19:29:45.383Z,0.15
2023-05-23T19:31:45.404Z,0.14
2023-05-23T19:33:46.350Z,0.14
2023-05-23T19:35:47.068Z,0.14
2023-05-23T19:37:45.556Z,0.14
2023-05-23T19:39:45.449Z,0.14
2023-05-23T19:41:45.336Z,0.14
2023-05-23T19:43:45.624Z,0.15
2023-05-23T19:45:45.480Z,0.15
2023-05-23T19:47:45.212Z,0.15
2023-05-23T19:49:45.673Z,55.97
2023-05-23T19:51:52.589Z,55.97
2023-05-23T19:53:45.043Z,55.97
2023-05-23T19:55:49.309Z,0.16
2023-05-23T19:57:45.076Z,0.16
2023-05-23T19:59:45.633Z,0.16
2023-05-23T20:01:49.027Z,0.16
2023-05-23T20:03:45.465Z,0.16
2023-05-23T20:05:45.573Z,0.16
2023-05-23T20:07:44.959Z,0.17
2023-05-23T20:09:45.417Z,0.17
2023-05-23T20:11:45.772Z,0.17
2023-05-23T20:13:45.246Z,65.34
2023-05-23T20:16:02.823Z,65.34
2023-05-23T20:17:45.845Z,65.34
2023-05-23T20:19:45.452Z,0.17
2023-05-23T20:21:45.106Z,0.17
2023-05-23T20:23:45.822Z,0.17
2023-05-23T20:25:46.319Z,61.48
2023-05-23T20:27:44.792Z,61.48
2023-05-23T20:29:45.454Z,61.48
2023-05-23T20:31:45.689Z,0.17
2023-05-23T20:33:49.163Z,0.17
2023-05-23T20:35:45.118Z,0.17
2023-05-23T20:37:45.771Z,61.48
2023-05-23T20:39:45.341Z,61.48
2023-05-23T20:41:48.102Z,61.48
2023-05-23T20:43:45.341Z,61.48
2023-05-23T20:45:45.024Z,61.48
2023-05-23T20:47:48.165Z,61.48
2023-05-23T20:49:45.613Z,63.39
2023-05-23T20:51:45.632Z,63.39
2023-05-23T20:53:48.277Z,63.39
2023-05-23T20:55:45.773Z,65.34
2023-05-23T20:57:44.905Z,65.34
2023-05-23T20:59:45.461Z,65.34
2023-05-23T21:01:48.793Z,0.18
2023-05-23T21:03:46.348Z,0.18
2023-05-23T21:05:45.453Z,0.18
2023-05-23T21:07:45.864Z,0.19
2023-05-23T21:09:45.169Z,0.19
2023-05-23T21:11:50.684Z,0.19
2023-05-23T21:13:45.670Z,0.2
2023-05-23T21:15:45.029Z,0.2
2023-05-23T21:17:46.241Z,0.2
2023-05-23T21:19:45.911Z,0.2
2023-05-23T21:21:45.833Z,0.2
2023-05-23T21:23:45.371Z,0.2
2023-05-23T21:25:45.860Z,75.6
2023-05-23T21:27:45.559Z,75.6
2023-05-23T21:29:47.267Z,75.6
2023-05-23T21:32:03.641Z,77.76
2023-05-23T21:33:45.515Z,77.76
2023-05-23T21:37:45.611Z,79.96
2023-05-23T21:40:02.508Z,79.96
2023-05-23T21:41:45.073Z,79.96
2023-05-23T21:43:45.588Z,0.22
2023-05-23T21:45:47.829Z,0.22
2023-05-23T21:47:46.342Z,0.22
2023-05-23T21:49:45.082Z,86.78
2023-05-23T21:51:45.979Z,86.78
2023-05-23T21:53:45.453Z,86.78
2023-05-23T21:55:45.047Z,89.13
2023-05-23T21:57:45.350Z,89.13
2023-05-23T21:59:44.885Z,89.13
2023-05-23T22:01:48.229Z,89.13
2023-05-23T22:03:46.490Z,89.13
2023-05-23T22:05:45.257Z,89.13
2023-05-23T22:07:45.367Z,91.52
2023-05-23T22:09:44.952Z,91.52
2023-05-23T22:11:46.009Z,91.52
2023-05-23T22:13:45.721Z,93.94
2023-05-23T22:15:44.952Z,93.94
2023-05-23T22:17:46.253Z,93.94
2023-05-23T22:19:49.942Z,0.27
2023-05-23T22:21:45.207Z,0.27
2023-05-23T22:23:47.554Z,0.27
2023-05-23T22:25:44.790Z,101.46
2023-05-23T22:27:45.489Z,101.46
2023-05-23T22:29:45.341Z,101.46
2023-05-23T22:31:48.011Z,0.28
2023-05-23T22:33:46.043Z,0.28
2023-05-23T22:35:45.252Z,0.28
2023-05-23T22:37:46.420Z,0.29
2023-05-23T22:39:45.360Z,0.29
2023-05-23T22:41:45.325Z,0.29
2023-05-23T22:43:46.077Z,106.67
2023-05-23T22:45:45.281Z,106.67
2023-05-23T22:47:46.493Z,106.67
2023-05-23T22:49:45.198Z,0.29
2023-05-23T22:51:45.592Z,0.29
2023-05-23T22:53:45.734Z,0.29
2023-05-23T22:55:45.360Z,106.67
2023-05-23T22:57:44.877Z,106.67
2023-05-23T22:59:45.844Z,106.67
2023-05-23T23:01:53.457Z,0.29
2023-05-23T23:03:46.708Z,0.29
2023-05-23T23:05:44.998Z,0.29
2023-05-23T23:07:45.501Z,109.34
2023-05-23T23:09:45.165Z,109.34
2023-05-23T23:11:45.836Z,109.34
2023-05-23T23:13:45.345Z,0.29
2023-05-23T23:15:47.634Z,0.29
2023-05-23T23:17:45.988Z,0.29
2023-05-23T23:19:45.505Z,0.29
2023-05-23T23:21:46.356Z,0.29
2023-05-23T23:23:45.099Z,0.29
2023-05-23T23:25:44.909Z,0.29
2023-05-23T23:27:45.502Z,0.29
2023-05-23T23:29:44.851Z,0.29
2023-05-23T23:31:46.086Z,104.05
2023-05-23T23:33:45.409Z,104.05
2023-05-23T23:35:45.711Z,104.05
2023-05-23T23:37:45.217Z,0.28
2023-05-23T23:39:45.698Z,0.28
2023-05-23T23:41:45.184Z,0.28
2023-05-23T23:43:45.628Z,106.67
2023-05-23T23:45:44.880Z,106.67
2023-05-23T23:47:46.433Z,106.67
2023-05-23T23:49:45.340Z,0.29
2023-05-23T23:51:44.894Z,0.29
2023-05-23T23:53:48.313Z,0.29
2023-05-23T23:55:44.997Z,109.34
2023-05-23T23:57:45.704Z,109.34
2023-05-23T23:59:45.132Z,109.34
